Time;durP1;ratioP1;P1;durP2;ratioP2;P2;SDS_P1;SDS_P2;PMS_P1;PMS_P2;Temp;Humidity;BMP_temperature;BMP_pressure;BME280_temperature;BME280_humidity;BME280_pressure;Samples;Min_cycle;Max_cycle;Signal;HPM_P1;HPM_P2
2022/01/31 00:01:17;;;;;;;13.03;3.60;;;;;;;2.51;68.34;100359.02;1760297;81;21011;-74
2022/01/31 00:03:44;;;;;;;15.57;3.30;;;;;;;2.55;68.35;100355.53;1760187;81;21005;-73
2022/01/31 00:06:11;;;;;;;18.97;3.60;;;;;;;2.58;68.29;100357.70;1760400;81;21091;-74
2022/01/31 00:08:40;;;;;;;10.77;3.13;;;;;;;2.63;68.23;100361.53;1759989;81;21025;-74
2022/01/31 00:11:07;;;;;;;13.87;3.33;;;;;;;2.65;68.20;100365.83;1760289;81;21079;-73
2022/01/31 00:13:44;;;;;;;13.33;2.70;;;;;;;2.66;68.08;100363.69;1770217;81;21450;-73
2022/01/31 00:16:14;;;;;;;16.53;3.03;;;;;;;2.70;68.06;100366.27;1772349;81;21009;-74
2022/01/31 00:18:38;;;;;;;17.67;2.73;;;;;;;2.73;67.93;100380.48;1772401;81;22082;-75
2022/01/31 00:21:05;;;;;;;17.70;3.47;;;;;;;2.75;67.91;100376.16;1773242;81;21009;-76
2022/01/31 00:23:32;;;;;;;13.67;2.83;;;;;;;2.76;67.80;100366.22;1772937;81;20985;-73
2022/01/31 00:26:00;;;;;;;15.00;2.43;;;;;;;2.77;67.66;100353.28;1773209;81;21001;-74
2022/01/31 00:28:27;;;;;;;14.93;3.30;;;;;;;2.76;67.66;100343.78;1772847;81;21247;-74
2022/01/31 00:30:55;;;;;;;20.97;3.27;;;;;;;2.75;67.57;100339.92;1773148;81;21998;-74
2022/01/31 00:33:23;;;;;;;14.53;3.20;;;;;;;2.75;67.61;100345.10;1772801;81;21006;-73
2022/01/31 00:35:51;;;;;;;18.20;3.20;;;;;;;2.75;67.66;100355.02;1773079;81;21964;-74
2022/01/31 00:38:19;;;;;;;14.07;3.20;;;;;;;2.76;67.62;100353.28;1772932;81;20958;-74
2022/01/31 00:40:46;;;;;;;12.83;2.80;;;;;;;2.75;67.62;100355.02;1773223;81;20970;-73
2022/01/31 00:43:15;;;;;;;13.27;2.90;;;;;;;2.77;67.67;100347.22;1772818;81;21118;-73
2022/01/31 00:45:57;;;;;;;18.77;3.13;;;;;;;2.78;67.64;100330.84;1772982;81;20966;-73
2022/01/31 00:48:18;;;;;;;12.90;2.73;;;;;;;2.77;67.61;100329.98;1770534;81;21026;-74
2022/01/31 00:50:46;;;;;;;19.53;4.07;;;;;;;2.78;67.60;100330.41;1772654;81;21526;-73
2022/01/31 00:53:11;;;;;;;17.03;3.50;;;;;;;2.79;67.65;100335.14;1772947;81;21009;-73
2022/01/31 00:55:39;;;;;;;15.33;3.43;;;;;;;2.80;67.67;100322.61;1772735;81;21143;-73
2022/01/31 00:58:06;;;;;;;16.73;3.13;;;;;;;2.81;67.71;100325.20;1772943;81;20851;-73
2022/01/31 01:00:34;;;;;;;14.23;2.77;;;;;;;2.80;67.58;100312.25;1772914;81;21034;-73
2022/01/31 01:03:02;;;;;;;14.47;3.30;;;;;;;2.81;67.61;100320.03;1773124;81;21029;-73
2022/01/31 01:05:29;;;;;;;12.50;3.07;;;;;;;2.82;67.69;100309.23;1772836;81;21588;-73
2022/01/31 01:07:56;;;;;;;17.13;3.00;;;;;;;2.83;67.68;100306.65;1773162;81;21928;-74
2022/01/31 01:10:24;;;;;;;14.47;3.13;;;;;;;2.82;67.62;100301.03;1772784;81;20990;-74
2022/01/31 01:12:51;;;;;;;14.77;3.10;;;;;;;2.82;67.70;100288.52;1769198;81;21524;-76
2022/01/31 01:15:18;;;;;;;16.23;3.37;;;;;;;2.81;67.66;100287.67;1762869;81;21054;-74
2022/01/31 01:17:46;;;;;;;17.37;3.63;;;;;;;2.78;67.65;100289.44;1762975;81;21527;-73
2022/01/31 01:20:15;;;;;;;16.77;3.80;;;;;;;2.76;67.57;100304.10;1762841;81;21241;-76
2022/01/31 01:22:44;;;;;;;12.85;3.72;;;;;;;2.71;67.64;100286.00;1763154;81;21220;-74
2022/01/31 01:25:13;;;;;;;16.50;3.17;;;;;;;2.69;67.60;100281.30;1762716;81;20902;-73
2022/01/31 01:27:42;;;;;;;12.13;2.83;;;;;;;2.65;67.65;100275.70;1762694;81;20975;-74
2022/01/31 01:30:14;;;;;;;16.65;2.92;;;;;;;2.61;67.71;100274.87;1763407;81;20978;-73
2022/01/31 01:32:59;;;;;;;;;;;;;;;2.59;67.74;100271.88;1765569;81;21244;-74
2022/01/31 01:35:17;;;;;;;19.50;4.07;;;;;;;2.56;67.84;100260.25;1739363;81;20138;-74
2022/01/31 01:37:44;;;;;;;20.43;3.17;;;;;;;2.54;67.92;100258.09;1762844;81;21009;-74
2022/01/31 01:40:12;;;;;;;17.87;3.33;;;;;;;2.52;68.00;100250.77;1763188;81;20938;-74
2022/01/31 01:42:41;;;;;;;17.77;3.13;;;;;;;2.51;68.14;100256.83;1762900;81;21018;-74
2022/01/31 01:45:10;;;;;;;19.82;3.17;;;;;;;2.48;68.19;100262.88;1763284;81;21161;-74
2022/01/31 01:47:38;;;;;;;14.17;2.90;;;;;;;2.46;68.25;100256.84;1762842;81;21003;-74
2022/01/31 01:50:06;;;;;;;14.93;2.73;;;;;;;2.44;68.39;100246.97;1763244;81;20994;-74
2022/01/31 01:52:34;;;;;;;14.00;2.93;;;;;;;2.45;68.47;100248.23;1739157;81;21469;-74
2022/01/31 01:55:01;;;;;;;15.67;3.03;;;;;;;2.45;68.50;100239.18;1762931;81;21009;-76
2022/01/31 01:57:30;;;;;;;13.53;3.30;;;;;;;2.45;68.63;100235.73;1762907;81;21949;-73
2022/01/31 01:59:58;;;;;;;17.73;3.30;;;;;;;2.47;68.64;100236.59;1762907;81;20982;-74
2022/01/31 02:02:28;;;;;;;18.42;3.90;;;;;;;2.48;68.75;100228.39;1760220;81;21037;-74
2022/01/31 02:04:57;;;;;;;14.97;3.40;;;;;;;2.49;68.81;100218.02;1762820;81;21453;-74
2022/01/31 02:07:41;;;;;;;17.30;3.20;;;;;;;2.50;68.92;100205.53;1763032;81;21178;-74
2022/01/31 02:10:11;;;;;;;8.97;2.60;;;;;;;2.51;68.92;100195.59;1763027;81;21245;-74
2022/01/31 02:12:49;;;;;;;20.10;3.47;;;;;;;2.52;69.00;100186.09;1761431;81;21041;-74
2022/01/31 02:15:23;;;;;;;17.77;3.40;;;;;;;2.53;69.08;100186.53;1761483;81;21356;-73
2022/01/31 02:17:58;;;;;;;14.20;3.63;;;;;;;2.53;69.02;100189.13;1732211;81;20982;-73
2022/01/31 02:20:25;;;;;;;16.27;3.10;;;;;;;2.53;69.03;100177.48;1763229;81;21013;-74
2022/01/31 02:22:55;;;;;;;14.27;3.10;;;;;;;2.53;69.01;100171.02;1763332;81;21133;-73
2022/01/31 02:25:32;;;;;;;14.43;2.77;;;;;;;2.50;68.98;100162.84;1762267;81;20967;-75
2022/01/31 02:28:03;;;;;;;15.70;3.33;;;;;;;2.51;69.03;100167.57;1763114;81;20978;-74
2022/01/31 02:30:30;;;;;;;12.37;2.33;;;;;;;2.49;68.99;100160.25;1739176;81;21558;-74
2022/01/31 02:32:57;;;;;;;20.27;3.57;;;;;;;2.47;69.01;100158.98;1762761;81;21061;-74
2022/01/31 02:35:24;;;;;;;13.80;2.47;;;;;;;2.48;69.05;100153.38;1762962;81;21143;-74
2022/01/31 02:37:52;;;;;;;17.03;4.47;;;;;;;2.48;69.05;100142.58;1762883;81;20987;-74
2022/01/31 02:40:27;;;;;;;16.93;2.97;;;;;;;2.48;69.04;100134.82;1761968;81;21495;-74
2022/01/31 02:42:55;;;;;;;16.77;3.43;;;;;;;2.50;69.06;100127.91;1763058;81;21535;-74
2022/01/31 02:45:24;;;;;;;21.93;3.03;;;;;;;2.51;69.05;100121.01;1762913;81;20997;-74
2022/01/31 02:47:55;;;;;;;16.60;2.53;;;;;;;2.51;68.99;100117.12;1762857;81;21531;-74
2022/01/31 02:50:21;;;;;;;16.93;2.50;;;;;;;2.53;68.94;100123.16;1762686;81;20966;-74
2022/01/31 02:52:57;;;;;;;15.30;3.00;;;;;;;2.54;69.00;100122.27;1762798;81;21281;-74
2022/01/31 02:55:17;;;;;;;15.37;2.97;;;;;;;2.55;69.00;100109.74;1761886;81;21495;-75
2022/01/31 02:57:45;;;;;;;12.93;2.50;;;;;;;2.56;68.98;100107.59;1762841;81;20966;-73
2022/01/31 03:00:13;;;;;;;15.23;3.40;;;;;;;2.55;68.92;100104.16;1763240;81;21111;-74
2022/01/31 03:02:48;;;;;;;14.77;2.33;;;;;;;2.57;68.96;100100.25;1760200;81;20998;-74
2022/01/31 03:05:15;;;;;;;13.87;2.83;;;;;;;2.58;68.93;100093.78;1763197;81;20998;-73
2022/01/31 03:07:42;;;;;;;13.37;2.33;;;;;;;2.58;68.91;100095.07;1762817;81;20955;-74
2022/01/31 03:10:12;;;;;;;14.20;2.57;;;;;;;2.60;68.91;100089.86;1763141;81;21021;-75
2022/01/31 03:12:39;;;;;;;;;;;;;;;2.61;68.89;100087.72;1765834;81;21132;-74
2022/01/31 03:15:07;;;;;;;16.43;2.70;;;;;;;2.61;68.77;100084.69;1772966;81;20567;-75
2022/01/31 03:17:52;;;;;;;17.03;3.27;;;;;;;2.62;68.82;100076.48;1773005;81;20970;-74
2022/01/31 03:20:23;;;;;;;9.63;2.17;;;;;;;2.62;68.84;100073.45;1772868;81;21435;-74
2022/01/31 03:22:51;;;;;;;13.88;2.12;;;;;;;2.62;68.86;100064.40;1773067;81;21267;-74
2022/01/31 03:25:19;;;;;;;20.03;3.50;;;;;;;2.63;68.88;100054.91;1773106;81;21755;-75
2022/01/31 03:27:48;;;;;;;15.70;3.33;;;;;;;2.62;68.84;100044.99;1772803;81;20994;-74
2022/01/31 03:30:20;;;;;;;17.50;3.08;;;;;;;2.63;68.78;100046.73;1773324;81;20993;-74
2022/01/31 03:32:48;;;;;;;17.30;3.20;;;;;;;2.63;68.79;100040.26;1772796;81;21423;-74
2022/01/31 03:35:17;;;;;;;15.17;2.93;;;;;;;2.62;68.79;100051.46;1773257;81;20994;-74
2022/01/31 03:37:45;;;;;;;12.27;2.80;;;;;;;2.62;68.75;100035.94;1772890;81;22004;-75
2022/01/31 03:40:14;;;;;;;13.57;3.17;;;;;;;2.63;68.82;100036.38;1773065;81;20954;-74
2022/01/31 03:42:42;;;;;;;17.27;3.23;;;;;;;2.62;68.81;100029.47;1772839;81;21033;-75
2022/01/31 03:45:11;;;;;;;15.40;2.83;;;;;;;2.62;68.80;100025.59;1773086;81;21487;-74
2022/01/31 03:47:46;;;;;;;13.93;3.03;;;;;;;2.62;68.82;100019.56;1773006;81;22017;-74
2022/01/31 03:50:19;;;;;;;14.67;2.43;;;;;;;2.62;68.84;100026.87;1744870;81;21137;-74
2022/01/31 03:52:48;;;;;;;11.03;2.80;;;;;;;2.62;68.84;100016.53;1772778;81;20997;-74
2022/01/31 03:55:17;;;;;;;17.30;3.20;;;;;;;2.63;68.84;100009.20;1773115;81;20967;-74
2022/01/31 03:57:46;;;;;;;13.62;2.60;;;;;;;2.63;68.88;100000.56;1772859;81;21475;-74
2022/01/31 04:00:16;;;;;;;18.43;3.13;;;;;;;2.65;68.94;100000.12;1771067;81;21546;-75
2022/01/31 04:02:47;;;;;;;18.13;2.80;;;;;;;2.65;68.92;100005.30;1772969;81;21127;-74
2022/01/31 04:05:13;;;;;;;17.20;3.37;;;;;;;2.66;68.96;100006.99;1773138;81;20982;-74
2022/01/31 04:07:42;;;;;;;16.53;2.47;;;;;;;2.64;68.94;99996.67;1772973;81;21029;-74
2022/01/31 04:10:10;;;;;;;19.13;3.10;;;;;;;2.64;69.06;99985.03;1773107;81;20990;-75
2022/01/31 04:12:37;;;;;;;20.10;3.77;;;;;;;2.64;69.03;99985.03;1772941;81;21265;-74
2022/01/31 04:15:05;;;;;;;18.53;3.03;;;;;;;2.63;68.98;99988.51;1772746;81;21745;-74
2022/01/31 04:17:33;;;;;;;19.23;3.67;;;;;;;2.62;69.01;99979.45;1772898;81;20978;-74
2022/01/31 04:20:00;;;;;;;15.93;2.87;;;;;;;2.62;69.06;99975.12;1773179;81;21006;-74
2022/01/31 04:22:30;;;;;;;13.20;3.17;;;;;;;2.62;69.10;99972.98;1772860;81;21001;-75
2022/01/31 04:24:59;;;;;;;15.40;2.97;;;;;;;2.62;69.16;99975.12;1772882;81;20997;-74
2022/01/31 04:27:27;;;;;;;19.00;3.47;;;;;;;2.61;69.19;99973.43;1772491;81;21247;-74
2022/01/31 04:29:52;;;;;;;15.53;3.00;;;;;;;2.61;69.25;99958.34;1772568;81;21021;-75
2022/01/31 04:32:19;;;;;;;10.37;3.00;;;;;;;2.62;69.31;99961.34;1772822;81;22203;-74
2022/01/31 04:34:48;;;;;;;20.63;3.30;;;;;;;2.62;69.32;99956.17;1772953;81;21030;-74
2022/01/31 04:37:15;;;;;;;14.40;3.20;;;;;;;2.62;69.37;99954.43;1773084;81;22075;-74
2022/01/31 04:39:42;;;;;;;20.77;3.70;;;;;;;2.60;69.34;99943.68;1772939;81;21145;-74
2022/01/31 04:42:09;;;;;;;20.43;2.80;;;;;;;2.59;69.46;99932.92;1772889;81;21515;-74
2022/01/31 04:44:36;;;;;;;18.00;3.33;;;;;;;2.60;69.39;99935.91;1772903;81;21046;-74
2022/01/31 04:47:05;;;;;;;19.67;3.63;;;;;;;2.58;69.47;99932.52;1772871;81;21002;-74
2022/01/31 04:49:35;;;;;;;16.47;3.20;;;;;;;2.58;69.50;99933.81;1772967;81;21037;-74
2022/01/31 04:52:01;;;;;;;19.37;3.33;;;;;;;2.58;69.51;99931.22;1772904;81;21175;-74
2022/01/31 04:54:28;;;;;;;15.07;2.93;;;;;;;2.56;69.54;99925.20;1772859;81;20978;-74
2022/01/31 04:56:55;;;;;;;18.77;3.37;;;;;;;2.55;69.68;99923.06;1773175;81;21247;-74
2022/01/31 04:59:26;;;;;;;18.13;3.40;;;;;;;2.56;69.65;99922.17;1772942;81;20994;-74
2022/01/31 05:01:53;;;;;;;14.23;3.60;;;;;;;2.55;69.66;99915.70;1772857;81;20982;-75
2022/01/31 05:04:20;;;;;;;13.87;3.03;;;;;;;2.55;69.75;99919.59;1773462;81;21125;-74
2022/01/31 05:06:48;;;;;;;16.90;3.30;;;;;;;2.54;69.75;99912.71;1773178;81;20985;-74
2022/01/31 05:09:15;;;;;;;14.10;3.40;;;;;;;2.53;69.72;99908.42;1772990;81;21088;-74
2022/01/31 05:11:42;;;;;;;18.40;3.03;;;;;;;2.51;69.79;99907.58;1773350;81;20982;-74
2022/01/31 05:14:10;;;;;;;16.80;2.83;;;;;;;2.51;69.90;99898.52;1768993;81;21471;-74
2022/01/31 05:16:37;;;;;;;18.50;3.23;;;;;;;2.48;69.85;99892.95;1762986;81;21204;-74
2022/01/31 05:19:04;;;;;;;21.20;3.50;;;;;;;2.48;69.95;99883.05;1763246;81;21053;-74
2022/01/31 05:21:31;;;;;;;16.23;3.10;;;;;;;2.47;69.98;99887.37;1762915;81;21523;-76
2022/01/31 05:23:58;;;;;;;18.93;3.20;;;;;;;2.45;70.08;99879.61;1763284;81;20994;-74
2022/01/31 05:26:26;;;;;;;22.07;3.27;;;;;;;2.48;70.14;99873.55;1763085;81;21593;-74
2022/01/31 05:28:52;;;;;;;20.30;3.50;;;;;;;2.46;70.13;99868.82;1763304;81;21181;-74
2022/01/31 05:31:19;;;;;;;15.87;3.67;;;;;;;2.46;70.17;99859.77;1762829;81;20994;-74
2022/01/31 05:33:46;;;;;;;22.47;3.40;;;;;;;2.46;70.19;99856.73;1763275;81;20982;-74
2022/01/31 05:36:12;;;;;;;19.33;3.67;;;;;;;2.48;70.19;99852.00;1763038;81;20998;-74
2022/01/31 05:38:40;;;;;;;16.30;3.07;;;;;;;2.46;70.20;99846.39;1763104;81;20994;-74
2022/01/31 05:41:17;;;;;;;19.00;4.00;;;;;;;2.47;70.25;99839.52;1763039;81;21599;-74
2022/01/31 05:43:38;;;;;;;19.13;3.00;;;;;;;2.47;70.24;99839.52;1761716;81;21471;-74
2022/01/31 05:46:05;;;;;;;18.57;3.60;;;;;;;2.48;70.27;99831.31;1763011;81;21014;-74
2022/01/31 05:48:32;;;;;;;16.47;3.30;;;;;;;2.46;70.28;99824.41;1762994;81;20966;-74
2022/01/31 05:50:59;;;;;;;20.33;3.67;;;;;;;2.47;70.32;99820.11;1763119;81;21511;-74
2022/01/31 05:53:26;;;;;;;13.57;2.90;;;;;;;2.49;70.35;99818.34;1762939;81;21487;-74
2022/01/31 05:55:53;;;;;;;18.97;3.13;;;;;;;2.49;70.33;99806.70;1762904;81;20974;-74
2022/01/31 05:58:20;;;;;;;14.37;2.73;;;;;;;2.51;70.32;99800.22;1762935;81;21010;-74
2022/01/31 06:00:47;;;;;;;12.73;3.33;;;;;;;2.51;70.37;99797.64;1763358;81;20999;-74
2022/01/31 06:03:14;;;;;;;16.37;3.37;;;;;;;2.49;70.26;99788.59;1762998;81;21042;-73
2022/01/31 06:05:41;;;;;;;22.90;3.43;;;;;;;2.49;70.28;99789.88;1763168;81;21089;-76
2022/01/31 06:08:08;;;;;;;20.67;4.17;;;;;;;2.48;70.29;99792.51;1762828;81;20970;-75
2022/01/31 06:10:41;;;;;;;16.53;3.73;;;;;;;2.43;70.25;99780.48;1744902;81;21074;-74
2022/01/31 06:13:04;;;;;;;27.37;5.10;;;;;;;2.43;70.35;99778.33;1732410;82;21039;-74
2022/01/31 06:15:31;;;;;;;24.07;5.67;;;;;;;2.43;70.34;99771.87;1738498;82;21018;-73
2022/01/31 06:17:58;;;;;;;18.47;4.10;;;;;;;2.41;70.48;99765.85;1739353;82;21139;-74
2022/01/31 06:20:24;;;;;;;20.17;3.93;;;;;;;2.41;70.42;99763.27;1733491;82;20923;-73
2022/01/31 06:22:52;;;;;;;24.37;4.00;;;;;;;2.39;70.43;99758.13;1742191;82;21069;-74
2022/01/31 06:25:21;;;;;;;18.10;3.77;;;;;;;2.40;70.51;99760.27;1743244;81;21011;-73
2022/01/31 06:27:48;;;;;;;16.80;4.57;;;;;;;2.40;70.54;99757.69;1742093;82;21054;-74
2022/01/31 06:30:15;;;;;;;26.00;4.07;;;;;;;2.42;70.56;99749.48;1715141;82;21183;-74
2022/01/31 06:32:44;;;;;;;17.10;3.37;;;;;;;2.42;70.52;99747.74;1741802;82;20999;-74
2022/01/31 06:35:12;;;;;;;14.97;3.03;;;;;;;2.41;70.44;99746.45;1742444;82;21078;-73
2022/01/31 06:37:40;;;;;;;18.63;3.10;;;;;;;2.40;70.48;99740.43;1742130;82;21065;-74
2022/01/31 06:40:07;;;;;;;15.53;3.20;;;;;;;2.41;70.56;99738.70;1742025;82;21027;-74
2022/01/31 06:42:34;;;;;;;19.87;3.67;;;;;;;2.42;70.56;99734.81;1744867;81;21195;-73
2022/01/31 06:45:03;;;;;;;22.87;3.40;;;;;;;2.43;70.47;99736.95;1749383;81;21027;-74
2022/01/31 06:47:30;;;;;;;17.13;3.50;;;;;;;2.43;70.46;99736.50;1742158;82;20998;-74
2022/01/31 06:49:59;;;;;;;21.60;3.57;;;;;;;2.43;70.46;99737.80;1742051;82;21022;-74
2022/01/31 06:52:32;;;;;;;27.70;4.50;;;;;;;2.45;70.51;99732.17;1742075;82;21042;-74
2022/01/31 06:55:01;;;;;;;18.03;2.73;;;;;;;2.45;70.44;99730.88;1741522;82;22119;-74
2022/01/31 06:57:33;;;;;;;19.42;3.87;;;;;;;2.44;70.44;99724.45;1741879;82;21803;-74
2022/01/31 06:59:55;;;;;;;24.27;4.17;;;;;;;2.45;70.42;99727.45;1741275;82;21022;-75
2022/01/31 07:02:22;;;;;;;18.03;3.33;;;;;;;2.46;70.41;99729.14;1742405;82;20979;-73
2022/01/31 07:04:49;;;;;;;19.00;3.33;;;;;;;2.47;70.48;99721.81;1741985;82;21083;-76
2022/01/31 07:07:16;;;;;;;21.53;3.97;;;;;;;2.46;70.39;99726.11;1742307;82;21122;-74
2022/01/31 07:09:43;;;;;;;16.87;2.70;;;;;;;2.45;70.40;99728.30;1741921;82;21555;-74
2022/01/31 07:12:12;;;;;;;17.93;3.60;;;;;;;2.45;70.47;99723.12;1742367;82;20991;-78
2022/01/31 07:14:39;;;;;;;18.93;3.67;;;;;;;2.45;70.53;99719.24;1741990;82;21026;-75
2022/01/31 07:17:06;;;;;;;21.80;4.13;;;;;;;2.44;70.38;99720.13;1742055;82;21074;-81
2022/01/31 07:19:37;;;;;;;24.57;3.47;;;;;;;2.44;70.37;99716.25;1742086;82;21160;-73
2022/01/31 07:22:07;;;;;;;21.75;3.98;;;;;;;2.45;70.31;99717.09;1742015;82;21519;-74
2022/01/31 07:27:04;;;;;;;20.32;4.12;;;;;;;2.45;70.37;99696.41;1742119;82;20907;-72
2022/01/31 07:29:32;;;;;;;22.47;3.83;;;;;;;2.48;70.41;99686.45;1742377;82;21078;-74
2022/01/31 07:32:00;;;;;;;14.60;3.10;;;;;;;2.47;70.25;99679.14;1741988;82;21154;-72
2022/01/31 07:34:28;;;;;;;17.33;3.83;;;;;;;2.48;70.16;99670.94;1742166;82;21030;-72
2022/01/31 07:36:55;;;;;;;18.30;3.70;;;;;;;2.46;70.14;99670.94;1741942;82;21074;-72
2022/01/31 07:39:22;;;;;;;18.27;3.87;;;;;;;2.45;70.06;99664.08;1742347;82;21436;-71
2022/01/31 07:41:49;;;;;;;28.87;6.43;;;;;;;2.44;70.14;99658.05;1742082;82;21065;-72
2022/01/31 07:44:16;;;;;;;21.47;3.93;;;;;;;2.44;70.14;99655.47;1742297;82;21200;-72
2022/01/31 07:46:43;;;;;;;16.73;3.73;;;;;;;2.45;70.10;99645.97;1741939;82;21066;-71
2022/01/31 07:49:10;;;;;;;18.27;3.30;;;;;;;2.45;70.19;99640.34;1742357;82;20999;-74
2022/01/31 07:51:40;;;;;;;13.13;3.83;;;;;;;2.47;70.11;99641.63;1742012;82;21031;-73
2022/01/31 07:54:08;;;;;;;21.20;3.50;;;;;;;2.45;70.03;99642.94;1742097;82;21034;-73
2022/01/31 07:56:35;;;;;;;21.87;4.10;;;;;;;2.44;70.04;99643.83;1742246;82;21357;-79
2022/01/31 07:59:02;;;;;;;17.00;3.60;;;;;;;2.46;69.99;99651.10;1742241;82;21493;-76
2022/01/31 08:01:29;;;;;;;16.23;3.77;;;;;;;2.49;70.06;99641.59;1742091;82;21019;-76
2022/01/31 08:03:56;;;;;;;21.20;3.73;;;;;;;2.48;70.03;99629.10;1742364;82;21008;-77
2022/01/31 08:06:23;;;;;;;26.77;3.93;;;;;;;2.49;69.93;99632.53;1742006;82;21034;-75
2022/01/31 08:08:50;;;;;;;14.37;3.23;;;;;;;2.48;69.94;99629.10;1742204;82;21528;-75
2022/01/31 08:11:18;;;;;;;20.50;4.03;;;;;;;2.51;69.94;99627.75;1742013;82;21022;-76
2022/01/31 08:13:44;;;;;;;22.53;4.23;;;;;;;2.52;69.96;99619.10;1742249;82;20951;-78
2022/01/31 08:16:13;;;;;;;18.60;3.90;;;;;;;2.55;70.02;99607.85;1732153;82;21449;-75
2022/01/31 08:18:43;;;;;;;19.27;3.53;;;;;;;2.57;70.01;99615.16;1730205;83;21019;-74
2022/01/31 08:21:13;;;;;;;24.75;4.37;;;;;;;2.58;69.85;99616.88;1730255;83;21149;-76
2022/01/31 08:23:42;;;;;;;19.67;3.37;;;;;;;2.59;69.80;99613.41;1730259;83;20986;-75
2022/01/31 08:26:14;;;;;;;15.37;3.97;;;;;;;2.60;69.77;99603.45;1730166;82;21022;-75
2022/01/31 08:28:44;;;;;;;20.53;4.43;;;;;;;2.59;69.69;99596.59;1730364;83;21023;-75
2022/01/31 08:31:21;;;;;;;21.60;3.63;;;;;;;2.59;69.72;99596.59;1730074;83;21042;-75
2022/01/31 08:33:50;;;;;;;14.00;3.13;;;;;;;2.57;69.73;99590.13;1729474;82;21845;-76
2022/01/31 08:36:14;;;;;;;14.98;3.12;;;;;;;2.60;69.82;99591.81;1730077;82;21040;-75
2022/01/31 08:38:45;;;;;;;21.03;4.17;;;;;;;2.60;69.73;99578.88;1730402;83;21415;-76
2022/01/31 08:41:13;;;;;;;20.97;3.67;;;;;;;2.61;69.76;99580.61;1730602;83;21496;-75
2022/01/31 08:43:41;;;;;;;17.80;3.63;;;;;;;2.61;69.72;99581.45;1730439;83;21004;-75
2022/01/31 08:46:11;;;;;;;19.43;3.87;;;;;;;2.63;69.75;99576.23;1730701;83;21741;-74
2022/01/31 08:48:39;;;;;;;23.38;4.20;;;;;;;2.64;69.73;99574.92;1730287;83;20984;-75
2022/01/31 08:51:10;;;;;;;17.57;4.47;;;;;;;2.66;69.73;99572.30;1708135;83;21011;-75
2022/01/31 08:53:38;;;;;;;25.07;3.80;;;;;;;2.67;69.70;99568.41;1730377;82;21501;-75
2022/01/31 08:56:09;;;;;;;23.30;4.87;;;;;;;2.67;69.73;99570.14;1730501;83;22062;-75
2022/01/31 08:58:42;;;;;;;14.10;3.60;;;;;;;2.68;69.75;99566.22;1730415;83;22056;-75
2022/01/31 09:01:08;;;;;;;18.95;3.20;;;;;;;2.70;69.77;99565.35;1707795;83;21055;-75
2022/01/31 09:06:07;;;;;;;26.68;4.83;;;;;;;2.73;70.07;99560.97;1730716;83;21278;-76
2022/01/31 09:08:34;;;;;;;20.27;4.30;;;;;;;2.75;69.89;99563.09;1730328;83;21008;-75
2022/01/31 09:11:02;;;;;;;18.47;3.70;;;;;;;2.75;69.80;99558.37;1730636;83;21188;-75
2022/01/31 09:13:29;;;;;;;21.57;3.90;;;;;;;2.76;69.77;99554.44;1730390;83;21038;-75
2022/01/31 09:15:56;;;;;;;22.80;4.20;;;;;;;2.78;69.87;99554.42;1737078;82;21006;-74
2022/01/31 09:18:24;;;;;;;17.67;3.97;;;;;;;2.77;69.86;99552.28;1742112;82;21013;-75
2022/01/31 09:20:51;;;;;;;26.83;4.50;;;;;;;2.76;69.83;99547.97;1742099;82;21026;-74
2022/01/31 09:23:18;;;;;;;23.03;4.97;;;;;;;2.76;69.73;99541.95;1742103;82;21154;-74
2022/01/31 09:25:47;;;;;;;22.53;4.37;;;;;;;2.79;70.05;99545.31;1742397;82;21062;-75
2022/01/31 09:28:15;;;;;;;26.40;5.60;;;;;;;2.82;69.93;99540.53;1742099;82;21461;-75
2022/01/31 09:30:45;;;;;;;19.47;4.47;;;;;;;2.82;69.78;99532.77;1742238;82;21592;-75
2022/01/31 09:33:13;;;;;;;29.23;4.77;;;;;;;2.83;69.80;99536.63;1742463;82;21151;-75
2022/01/31 09:35:42;;;;;;;26.60;4.60;;;;;;;2.84;69.77;99521.95;1742084;82;21090;-79
2022/01/31 09:38:13;;;;;;;23.30;5.60;;;;;;;2.85;69.76;99524.94;1742155;81;21056;-75
2022/01/31 09:40:41;;;;;;;22.37;5.05;;;;;;;2.87;69.95;99515.41;1757691;81;21042;-75
2022/01/31 09:46:02;;;;;;;24.30;4.80;;;;;;;2.99;70.08;99516.90;1742229;82;21293;-76
2022/01/31 09:51:06;;;;;;;24.10;4.20;;;;;;;3.05;69.90;99509.88;1749214;81;21035;-75
2022/01/31 09:53:38;;;;;;;19.27;3.53;;;;;;;3.10;69.79;99508.47;1758117;81;21095;-77
2022/01/31 09:56:10;;;;;;;19.63;4.00;;;;;;;3.12;69.71;99508.00;1744836;81;21082;-77
2022/01/31 09:58:39;;;;;;;25.00;3.87;;;;;;;3.15;69.57;99501.45;1750859;81;21030;-78
2022/01/31 10:01:14;;;;;;;21.20;3.90;;;;;;;3.18;69.66;99498.80;1745001;81;21084;-78
2022/01/31 10:03:52;;;;;;;18.20;4.10;;;;;;;3.20;69.49;99490.56;1736639;81;21023;-78
2022/01/31 10:06:32;;;;;;;25.67;4.87;;;;;;;3.20;69.43;99489.27;1743758;81;21015;-78
2022/01/31 10:09:19;;;;;;;23.10;4.83;;;;;;;3.23;69.42;99484.02;1742146;81;21545;-78
2022/01/31 10:11:51;;;;;;;24.37;4.93;;;;;;;3.26;69.33;99475.34;1735292;81;21036;-77
2022/01/31 10:17:25;;;;;;;21.07;4.43;;;;;;;3.24;69.11;99471.50;1699268;83;21046;-77
2022/01/31 10:19:56;;;;;;;18.33;4.50;;;;;;;3.26;69.04;99464.53;1706295;83;21000;-77
2022/01/31 10:22:25;;;;;;;;;;;;;;;3.26;69.05;99467.12;1729897;83;21023;-77
2022/01/31 10:24:55;;;;;;;23.47;4.37;;;;;;;3.28;68.96;99452.85;1727264;82;21540;-77
2022/01/31 10:27:29;;;;;;;23.57;4.70;;;;;;;3.28;68.95;99447.22;1727297;83;21141;-76
2022/01/31 10:30:13;;;;;;;19.73;4.27;;;;;;;3.34;69.02;99438.47;1692781;83;21027;-77
2022/01/31 10:32:45;;;;;;;31.57;6.63;;;;;;;3.39;69.04;99428.00;1682886;84;21063;-77
2022/01/31 10:35:18;;;;;;;26.43;6.67;;;;;;;3.45;68.98;99425.27;1701120;82;21498;-79
2022/01/31 10:37:47;;;;;;;25.63;5.17;;;;;;;3.50;69.00;99423.42;1698576;82;21053;-75
2022/01/31 10:43:23;;;;;;;24.87;4.77;;;;;;;3.66;69.00;99423.46;1683475;85;21047;-80
2022/01/31 10:56:56;;;;;;;26.03;4.90;;;;;;;3.98;68.48;99408.83;1683040;85;21106;-73
2022/01/31 10:59:40;;;;;;;20.37;4.87;;;;;;;3.96;68.20;99405.41;1683411;85;21041;-74
2022/01/31 11:02:18;;;;;;;25.47;6.03;;;;;;;3.93;68.11;99402.45;1682412;85;21019;-79
2022/01/31 11:04:46;;;;;;;37.57;13.07;;;;;;;3.92;68.07;99401.21;1653578;86;21036;-78
2022/01/31 11:07:23;;;;;;;26.30;6.17;;;;;;;3.92;68.12;99398.17;1654331;86;21217;-76
2022/01/31 11:09:53;;;;;;;19.80;5.13;;;;;;;3.95;68.10;99401.13;1675133;85;37405;-76
2022/01/31 11:12:23;;;;;;;28.63;5.80;;;;;;;3.96;68.00;99398.52;1683176;85;21054;-76
2022/01/31 11:14:53;;;;;;;20.05;5.87;;;;;;;3.99;67.95;99394.54;1683091;84;21465;-77
2022/01/31 11:17:19;;;;;;;26.17;7.35;;;;;;;3.97;67.75;99392.88;1708926;83;21036;-77
2022/01/31 11:19:56;;;;;;;30.30;9.03;;;;;;;3.98;67.88;99393.27;1712343;83;21113;-78
2022/01/31 11:22:27;;;;;;;38.30;8.53;;;;;;;4.00;67.88;99386.30;1711688;83;21009;-77
2022/01/31 11:24:52;;;;;;;26.65;6.92;;;;;;;4.03;67.70;99380.59;1711308;83;21450;-77
2022/01/31 11:27:23;;;;;;;25.00;6.05;;;;;;;4.05;67.66;99378.38;1712588;83;21068;-78
2022/01/31 11:29:58;;;;;;;26.63;6.80;;;;;;;4.08;67.67;99380.92;1711675;83;21070;-78
2022/01/31 11:32:24;;;;;;;33.33;8.50;;;;;;;4.10;67.54;99373.52;1711585;83;21967;-78
2022/01/31 11:34:51;;;;;;;38.37;10.50;;;;;;;4.14;67.44;99371.22;1712594;83;21010;-77
2022/01/31 11:37:21;;;;;;;43.97;13.77;;;;;;;4.17;67.40;99365.11;1712923;83;21011;-77
2022/01/31 11:39:55;;;;;;;34.93;10.30;;;;;;;4.20;67.30;99365.86;1712689;83;21058;-76
2022/01/31 11:42:22;;;;;;;30.80;7.80;;;;;;;4.22;67.20;99362.78;1712961;83;21085;-73
2022/01/31 11:45:01;;;;;;;24.33;4.83;;;;;;;4.27;67.17;99360.08;1712550;83;21363;-76
2022/01/31 11:47:32;;;;;;;23.37;5.73;;;;;;;4.32;67.13;99358.63;1712527;83;20991;-72
2022/01/31 11:50:06;;;;;;;18.30;4.60;;;;;;;4.34;66.94;99360.29;1712723;83;21042;-73
2022/01/31 11:52:50;;;;;;;26.07;5.37;;;;;;;4.40;67.01;99357.97;1712941;83;21034;-74
2022/01/31 11:55:21;;;;;;;25.93;5.80;;;;;;;4.43;66.95;99354.86;1712872;83;21562;-73
2022/01/31 11:57:52;;;;;;;25.07;5.87;;;;;;;4.49;66.84;99348.64;1723062;82;21494;-73
2022/01/31 12:00:24;;;;;;;23.73;5.60;;;;;;;4.52;66.82;99345.08;1746145;81;21531;-76
2022/01/31 12:02:55;;;;;;;21.37;5.20;;;;;;;4.55;66.81;99341.12;1750004;80;21015;-74
2022/01/31 12:05:28;;;;;;;23.10;4.80;;;;;;;4.60;66.58;99347.00;1751734;81;21513;-74
2022/01/31 12:08:17;;;;;;;24.37;5.00;;;;;;;4.60;66.43;99343.11;1749178;81;21039;-75